createdAt,value
2022-11-15T00:00:58.140Z,431.50
2022-11-15T00:03:27.649Z,364.40
2022-11-15T00:05:54.499Z,358.80
2022-11-15T00:08:21.633Z,436.70
2022-11-15T00:11:02.288Z,566.60
2022-11-15T00:13:29.335Z,399.70
2022-11-15T00:16:01.042Z,260.50
2022-11-15T00:20:54.733Z,351.20
2022-11-15T00:23:21.272Z,428.90
2022-11-15T00:25:47.733Z,397.90
2022-11-15T00:28:14.249Z,344.50
2022-11-15T00:30:40.681Z,452.00
2022-11-15T00:33:07.947Z,375.30
2022-11-15T00:35:35.721Z,439.40
2022-11-15T00:38:02.994Z,403.30
2022-11-15T00:40:30.143Z,546.60
2022-11-15T00:42:56.937Z,460.90
2022-11-15T00:45:23.732Z,515.00
2022-11-15T00:47:50.306Z,365.10
2022-11-15T00:50:17.608Z,518.90
2022-11-15T00:52:44.992Z,433.90
2022-11-15T00:55:16.711Z,676.10
2022-11-15T00:57:43.500Z,692.30
2022-11-15T01:00:11.434Z,458.30
2022-11-15T01:02:38.427Z,565.80
2022-11-15T01:05:05.835Z,610.40
2022-11-15T01:07:32.732Z,604.90
2022-11-15T01:09:59.327Z,491.50
2022-11-15T01:12:25.817Z,412.40
2022-11-15T01:14:52.251Z,337.30
2022-11-15T01:17:18.790Z,408.00
2022-11-15T01:19:45.248Z,489.80
2022-11-15T01:22:11.656Z,408.50
2022-11-15T01:24:38.210Z,388.30
2022-11-15T01:27:04.755Z,444.10
2022-11-15T01:29:31.294Z,350.20
2022-11-15T01:31:57.833Z,480.70
2022-11-15T01:34:24.274Z,538.90
2022-11-15T01:36:51.211Z,449.60
2022-11-15T01:39:17.939Z,413.30
2022-11-15T01:41:44.920Z,531.20
2022-11-15T01:44:42.594Z,280.00
2022-11-15T01:47:26.791Z,321.40
2022-11-15T01:50:01.816Z,420.50
2022-11-15T01:52:32.045Z,377.70
2022-11-15T01:55:08.901Z,293.00
2022-11-15T01:57:36.115Z,299.80
2022-11-15T02:00:05.793Z,349.80
2022-11-15T02:02:34.051Z,362.40
2022-11-15T02:05:01.007Z,299.70
2022-11-15T02:07:27.626Z,335.60
2022-11-15T02:09:55.508Z,282.80
2022-11-15T02:12:23.136Z,279.70
2022-11-15T02:14:53.813Z,361.40
2022-11-15T02:18:02.377Z,291.70
2022-11-15T02:20:42.602Z,243.70
2022-11-15T02:23:56.757Z,260.30
2022-11-15T02:26:47.670Z,239.40
2022-11-15T02:29:36.400Z,264.60
2022-11-15T02:32:24.235Z,315.10
2022-11-15T02:35:17.804Z,322.30
2022-11-15T02:37:55.450Z,327.80
2022-11-15T02:40:43.698Z,347.20
2022-11-15T02:43:16.799Z,213.80
2022-11-15T02:45:52.096Z,370.80
2022-11-15T02:48:19.503Z,228.50
2022-11-15T02:50:46.967Z,364.10
2022-11-15T02:53:15.549Z,252.10
2022-11-15T02:55:46.905Z,228.80
2022-11-15T02:58:32.122Z,267.10
2022-11-15T03:01:05.524Z,261.70
2022-11-15T03:03:38.361Z,292.10
2022-11-15T03:06:24.584Z,233.10
2022-11-15T03:09:09.286Z,288.20
2022-11-15T03:11:41.824Z,221.20
2022-11-15T03:14:28.931Z,228.80
2022-11-15T03:17:16.976Z,300.00
2022-11-15T03:19:51.093Z,354.90
2022-11-15T03:22:21.325Z,341.10
2022-11-15T03:24:53.696Z,394.00
2022-11-15T03:27:26.545Z,293.60
2022-11-15T03:30:01.730Z,353.70
2022-11-15T03:32:32.478Z,313.30
2022-11-15T03:35:20.420Z,244.50
2022-11-15T03:38:02.182Z,323.10
2022-11-15T03:40:36.900Z,358.70
2022-11-15T03:43:37.791Z,298.20
2022-11-15T03:46:12.152Z,353.20
2022-11-15T03:48:44.671Z,302.20
2022-11-15T03:51:11.908Z,298.70
2022-11-15T03:53:38.415Z,330.20
2022-11-15T03:56:05.052Z,272.10
2022-11-15T03:58:31.687Z,336.20
2022-11-15T04:00:58.213Z,225.30
2022-11-15T04:03:24.777Z,289.10
2022-11-15T04:05:51.414Z,262.80
2022-11-15T04:08:18.159Z,259.90
2022-11-15T04:10:44.743Z,207.80
2022-11-15T04:13:11.213Z,234.50
2022-11-15T04:15:37.663Z,197.50
2022-11-15T04:18:04.152Z,216.50
2022-11-15T04:20:32.288Z,217.70
2022-11-15T04:23:00.783Z,271.50
2022-11-15T04:25:32.004Z,224.50
2022-11-15T04:27:58.892Z,165.50
2022-11-15T04:30:25.381Z,181.90
2022-11-15T04:32:51.855Z,157.60
2022-11-15T04:35:18.350Z,177.90
2022-11-15T04:37:49.139Z,194.40
2022-11-15T04:40:16.380Z,214.40
2022-11-15T04:42:43.443Z,185.40
2022-11-15T04:45:11.028Z,217.90
2022-11-15T04:47:37.548Z,233.40
2022-11-15T04:50:04.663Z,197.50
2022-11-15T04:52:31.115Z,237.70
2022-11-15T04:54:57.553Z,232.30
2022-11-15T04:57:24.049Z,224.10
2022-11-15T04:59:50.584Z,229.00
2022-11-15T05:02:17.104Z,230.30
2022-11-15T05:04:43.843Z,171.60
2022-11-15T05:07:10.389Z,185.30
2022-11-15T05:09:36.971Z,185.50
2022-11-15T05:12:03.573Z,174.00
2022-11-15T05:14:30.120Z,168.20
2022-11-15T05:16:56.651Z,174.60
2022-11-15T05:19:23.191Z,146.70
2022-11-15T05:21:49.727Z,141.30
2022-11-15T05:24:16.152Z,143.40
2022-11-15T05:26:42.639Z,137.50
2022-11-15T05:29:10.684Z,134.60
2022-11-15T05:31:41.687Z,152.50
2022-11-15T05:34:08.380Z,97.50
2022-11-15T05:36:42.968Z,130.90
2022-11-15T05:39:09.852Z,125.00
2022-11-15T05:41:48.782Z,131.10
2022-11-15T05:44:18.883Z,144.70
2022-11-15T05:46:46.364Z,149.20
2022-11-15T05:49:17.021Z,136.70
2022-11-15T05:51:45.579Z,107.60
2022-11-15T05:54:12.532Z,148.80
2022-11-15T05:56:39.897Z,122.40
2022-11-15T05:59:08.361Z,132.10
2022-11-15T06:01:35.030Z,128.10
2022-11-15T06:04:01.573Z,131.00
2022-11-15T06:06:29.548Z,139.20
2022-11-15T06:08:56.199Z,142.50
2022-11-15T06:11:22.837Z,135.90
2022-11-15T06:13:49.583Z,135.00
2022-11-15T06:16:16.048Z,131.40
2022-11-15T06:18:42.488Z,135.60
2022-11-15T06:21:08.999Z,135.60
2022-11-15T06:23:36.446Z,130.50
2022-11-15T06:26:03.925Z,122.40
2022-11-15T06:28:34.324Z,121.90
2022-11-15T06:31:09.008Z,119.40
2022-11-15T06:33:35.958Z,97.70
2022-11-15T06:36:11.904Z,107.00
2022-11-15T06:38:41.246Z,104.00
2022-11-15T06:41:10.019Z,86.40
2022-11-15T06:43:37.376Z,82.90
2022-11-15T06:46:05.138Z,80.40
2022-11-15T06:48:33.211Z,79.90
2022-11-15T06:51:01.098Z,76.40
2022-11-15T06:53:29.143Z,68.70
2022-11-15T06:56:00.310Z,72.40
2022-11-15T06:58:26.854Z,77.00
2022-11-15T07:00:53.668Z,66.90
2022-11-15T07:03:20.140Z,68.20
2022-11-15T07:05:55.079Z,58.10
2022-11-15T07:08:23.360Z,67.00
2022-11-15T07:10:50.310Z,67.50
2022-11-15T07:13:17.158Z,65.50
2022-11-15T07:15:43.694Z,63.20
2022-11-15T07:18:10.351Z,62.00
2022-11-15T07:20:36.974Z,58.30
2022-11-15T07:23:05.230Z,60.70
2022-11-15T07:25:32.330Z,56.40
2022-11-15T07:28:00.535Z,58.60
2022-11-15T07:30:28.362Z,60.40
2022-11-15T07:33:00.139Z,56.10
2022-11-15T07:35:28.098Z,56.30
2022-11-15T07:37:59.684Z,50.80
2022-11-15T07:40:31.479Z,49.90
2022-11-15T07:43:02.413Z,54.10
2022-11-15T07:45:29.313Z,57.30
2022-11-15T07:47:56.678Z,59.10
2022-11-15T07:50:25.058Z,55.90
2022-11-15T07:52:59.988Z,55.70
2022-11-15T07:55:28.686Z,55.90
2022-11-15T07:58:01.637Z,51.50
2022-11-15T08:00:28.117Z,60.60
2022-11-15T08:03:06.540Z,56.50
2022-11-15T08:05:33.381Z,50.50
2022-11-15T08:08:00.223Z,45.20
2022-11-15T08:10:28.239Z,42.30
2022-11-15T08:13:11.790Z,37.40
2022-11-15T08:15:38.946Z,36.80
2022-11-15T08:18:16.840Z,36.80
2022-11-15T08:20:44.259Z,38.70
2022-11-15T08:23:12.867Z,41.30
2022-11-15T08:25:39.899Z,42.10
2022-11-15T08:28:08.805Z,43.00
2022-11-15T08:30:38.240Z,37.60
2022-11-15T08:33:04.746Z,36.30
2022-11-15T08:35:31.592Z,36.10
2022-11-15T08:37:58.121Z,31.30
2022-11-15T08:40:24.991Z,35.50
2022-11-15T08:42:51.747Z,32.70
2022-11-15T08:45:18.355Z,34.50
2022-11-15T08:47:47.413Z,31.20
2022-11-15T08:50:17.793Z,31.50
2022-11-15T08:52:44.349Z,27.70
2022-11-15T08:55:11.096Z,31.20
2022-11-15T08:57:37.945Z,28.60
2022-11-15T09:00:05.194Z,37.20
2022-11-15T09:02:31.667Z,30.30
2022-11-15T09:04:58.186Z,33.50
2022-11-15T09:07:24.919Z,32.60
2022-11-15T09:09:51.578Z,28.40
2022-11-15T09:12:18.219Z,31.70
2022-11-15T09:14:44.870Z,29.70
2022-11-15T09:17:11.432Z,30.80
2022-11-15T09:19:37.948Z,29.40
2022-11-15T09:22:07.869Z,31.40
2022-11-15T09:24:35.141Z,27.90
2022-11-15T09:27:01.660Z,28.30
2022-11-15T09:29:28.126Z,30.50
2022-11-15T09:31:54.748Z,22.90
2022-11-15T09:34:21.286Z,25.80
2022-11-15T09:36:48.132Z,26.70
2022-11-15T09:39:14.861Z,26.00
2022-11-15T09:41:59.583Z,23.90
2022-11-15T09:44:56.711Z,23.90
2022-11-15T09:47:35.572Z,21.50
2022-11-15T09:50:09.041Z,20.70
2022-11-15T09:52:37.964Z,18.50
2022-11-15T09:55:06.209Z,21.40
2022-11-15T09:57:42.488Z,21.90
2022-11-15T10:03:45.095Z,17.10
2022-11-15T10:06:25.748Z,21.00
2022-11-15T10:09:00.539Z,21.00
2022-11-15T10:11:37.354Z,18.60
2022-11-15T10:14:36.284Z,17.30
2022-11-15T10:17:28.015Z,18.90
2022-11-15T10:20:06.027Z,18.80
2022-11-15T10:22:54.086Z,22.00
2022-11-15T10:25:20.677Z,22.90
2022-11-15T10:28:02.122Z,27.40
2022-11-15T10:30:39.028Z,24.30
2022-11-15T10:33:18.432Z,23.90
2022-11-15T10:35:44.918Z,27.20
2022-11-15T10:38:12.859Z,27.80
2022-11-15T10:40:41.790Z,25.20
2022-11-15T10:43:11.148Z,26.00
2022-11-15T10:45:39.024Z,24.80
2022-11-15T10:48:14.678Z,27.60
2022-11-15T10:50:43.549Z,27.90
2022-11-15T10:53:46.931Z,31.60
2022-11-15T10:56:15.787Z,27.70
2022-11-15T10:58:52.621Z,28.80
2022-11-15T11:01:23.696Z,21.70
2022-11-15T11:04:04.848Z,20.60
2022-11-15T11:06:46.730Z,27.60
2022-11-15T11:09:36.790Z,24.70
2022-11-15T11:12:06.735Z,26.60
2022-11-15T11:14:38.629Z,29.80
2022-11-15T11:17:18.604Z,27.70
2022-11-15T11:19:48.146Z,27.10
2022-11-15T11:22:41.516Z,25.70
2022-11-15T11:25:36.651Z,25.00
2022-11-15T11:28:32.733Z,22.30
2022-11-15T11:31:26.438Z,19.80
2022-11-15T11:34:05.679Z,20.00
2022-11-15T11:36:35.080Z,20.50
2022-11-15T11:39:18.210Z,21.40
2022-11-15T11:41:56.556Z,20.70
2022-11-15T11:44:32.178Z,20.70
2022-11-15T11:47:07.829Z,19.30
2022-11-15T11:49:42.440Z,21.80
2022-11-15T11:52:11.679Z,18.40
2022-11-15T11:54:59.305Z,17.40
2022-11-15T11:57:41.096Z,18.70
2022-11-15T12:00:21.619Z,16.30
2022-11-15T12:03:01.761Z,17.80
2022-11-15T12:05:31.745Z,21.10
2022-11-15T12:08:05.665Z,19.10
2022-11-15T12:10:34.469Z,23.60
2022-11-15T12:13:14.375Z,20.80
2022-11-15T12:15:49.062Z,19.30
2022-11-15T12:18:17.564Z,18.40
2022-11-15T12:20:56.467Z,18.30
2022-11-15T12:23:36.312Z,17.10
2022-11-15T12:26:16.983Z,17.10
2022-11-15T12:29:06.475Z,36.00
2022-11-15T12:31:41.603Z,26.80
2022-11-15T12:34:17.035Z,19.80
2022-11-15T12:36:48.032Z,19.40
2022-11-15T12:41:44.063Z,19.40
2022-11-15T12:44:33.427Z,14.70
2022-11-15T12:47:05.125Z,17.10
2022-11-15T12:49:31.532Z,19.50
2022-11-15T12:51:58.062Z,16.10
2022-11-15T12:54:24.623Z,16.80
2022-11-15T12:57:03.546Z,19.30
2022-11-15T13:00:14.829Z,16.00
2022-11-15T13:02:45.185Z,18.20
2022-11-15T13:05:14.670Z,20.20
2022-11-15T13:07:41.265Z,20.80
2022-11-15T13:10:11.121Z,15.00
2022-11-15T13:12:37.639Z,18.30
2022-11-15T13:15:13.234Z,30.90
2022-11-15T13:17:44.676Z,25.30
2022-11-15T13:20:14.394Z,17.40
2022-11-15T13:22:48.648Z,22.30
2022-11-15T13:25:44.668Z,20.10
2022-11-15T13:28:17.134Z,21.20
2022-11-15T13:30:53.870Z,22.00
2022-11-15T13:33:25.879Z,17.10
2022-11-15T13:35:58.826Z,22.90
2022-11-15T13:38:25.228Z,21.40
2022-11-15T13:40:51.876Z,20.50
2022-11-15T13:43:28.500Z,19.90
2022-11-15T13:46:34.033Z,14.50
2022-11-15T13:49:06.256Z,15.60
2022-11-15T13:51:53.073Z,15.80
2022-11-15T13:54:34.510Z,17.50
2022-11-15T13:59:34.362Z,16.50
2022-11-15T14:02:13.433Z,17.50
2022-11-15T14:04:49.176Z,17.40
2022-11-15T14:07:21.350Z,23.60
2022-11-15T14:09:48.671Z,21.10
2022-11-15T14:12:51.315Z,26.70
2022-11-15T14:15:32.954Z,44.20
2022-11-15T14:18:00.012Z,48.20
2022-11-15T14:20:34.092Z,49.50
2022-11-15T14:23:06.151Z,33.40
2022-11-15T14:25:35.114Z,31.10
2022-11-15T14:28:23.089Z,28.60
2022-11-15T14:30:50.744Z,34.70
2022-11-15T14:33:30.938Z,27.30
2022-11-15T14:35:59.952Z,27.00
2022-11-15T14:38:27.181Z,31.80
2022-11-15T14:40:55.179Z,33.60
2022-11-15T14:43:21.901Z,48.50
2022-11-15T14:45:48.570Z,50.40
2022-11-15T14:48:15.283Z,49.10
2022-11-15T14:50:41.987Z,55.80
2022-11-15T14:53:13.377Z,43.60
2022-11-15T14:55:39.941Z,42.70
2022-11-15T14:58:07.599Z,47.00
2022-11-15T15:00:35.844Z,49.00
2022-11-15T15:03:03.128Z,48.50
2022-11-15T15:05:35.603Z,55.50
2022-11-15T15:08:03.231Z,63.50
2022-11-15T15:10:42.237Z,72.40
2022-11-15T15:13:24.205Z,68.20
2022-11-15T15:15:52.290Z,210.60
2022-11-15T15:18:20.755Z,142.20
2022-11-15T15:20:55.399Z,71.60
2022-11-15T15:23:22.032Z,122.30
2022-11-15T15:25:48.995Z,159.80
2022-11-15T15:28:16.151Z,131.10
2022-11-15T15:30:42.692Z,125.20
2022-11-15T15:33:09.130Z,102.20
2022-11-15T15:35:36.393Z,123.00
2022-11-15T15:38:03.957Z,84.70
2022-11-15T15:40:33.403Z,85.30
2022-11-15T15:43:00.511Z,82.20
2022-11-15T15:45:27.970Z,102.40
2022-11-15T15:47:54.619Z,103.20
2022-11-15T15:50:22.694Z,85.10
2022-11-15T15:52:50.379Z,137.10
2022-11-15T15:55:17.106Z,154.60
2022-11-15T15:57:43.578Z,242.60
2022-11-15T16:00:10.803Z,228.00
2022-11-15T16:02:40.429Z,183.50
2022-11-15T16:05:08.438Z,105.50
2022-11-15T16:07:35.799Z,88.10
2022-11-15T16:10:03.985Z,62.30
2022-11-15T16:12:35.577Z,68.20
2022-11-15T16:15:03.613Z,60.10
2022-11-15T16:17:34.562Z,59.20
2022-11-15T16:20:01.462Z,60.30
2022-11-15T16:22:27.907Z,75.20
2022-11-15T16:24:54.344Z,82.70
2022-11-15T16:27:22.605Z,74.30
2022-11-15T16:29:49.865Z,101.40
2022-11-15T16:32:16.949Z,106.20
2022-11-15T16:34:48.542Z,74.40
2022-11-15T16:37:24.636Z,80.70
2022-11-15T16:39:51.585Z,159.10
2022-11-15T16:42:18.229Z,118.30
2022-11-15T16:44:44.790Z,98.10
2022-11-15T16:47:20.636Z,68.60
2022-11-15T16:49:47.172Z,171.90
2022-11-15T16:52:17.528Z,117.50
2022-11-15T16:54:46.794Z,122.20
2022-11-15T16:57:13.253Z,85.00
2022-11-15T16:59:39.797Z,129.00
2022-11-15T17:02:12.604Z,109.40
2022-11-15T17:04:39.121Z,102.50
2022-11-15T17:07:05.623Z,103.00
2022-11-15T17:09:32.199Z,102.30
2022-11-15T17:11:58.736Z,106.90
2022-11-15T17:14:25.146Z,91.40
2022-11-15T17:16:51.611Z,93.60
2022-11-15T17:19:20.728Z,91.40
2022-11-15T17:21:48.432Z,84.10
2022-11-15T17:24:15.336Z,85.80
2022-11-15T17:26:41.788Z,87.40
2022-11-15T17:29:08.962Z,92.90
2022-11-15T17:31:36.507Z,98.80
2022-11-15T17:34:04.773Z,92.60
2022-11-15T17:36:31.569Z,88.00
2022-11-15T17:38:59.810Z,95.30
2022-11-15T17:41:28.393Z,96.90
2022-11-15T17:43:59.034Z,87.50
2022-11-15T17:46:26.595Z,91.90
2022-11-15T17:48:53.143Z,129.30
2022-11-15T17:51:19.689Z,125.60
2022-11-15T17:53:47.548Z,136.70
2022-11-15T17:56:16.589Z,176.00
2022-11-15T17:58:54.760Z,172.00
2022-11-15T18:01:28.651Z,151.00
2022-11-15T18:03:56.819Z,233.80
2022-11-15T18:06:24.828Z,154.60
2022-11-15T18:08:53.751Z,121.60
2022-11-15T18:11:23.970Z,102.50
2022-11-15T18:13:53.829Z,118.20
2022-11-15T18:16:22.713Z,99.80
2022-11-15T18:18:49.318Z,93.00
2022-11-15T18:21:18.759Z,101.20
2022-11-15T18:23:45.802Z,105.70
2022-11-15T18:26:14.547Z,112.70
2022-11-15T18:28:44.940Z,112.80
2022-11-15T18:31:26.024Z,121.50
2022-11-15T18:33:53.358Z,252.60
2022-11-15T18:36:22.852Z,205.30
2022-11-15T18:38:57.552Z,157.10
2022-11-15T18:41:25.060Z,161.70
2022-11-15T18:43:51.863Z,135.40
2022-11-15T18:46:21.062Z,152.00
2022-11-15T18:48:49.199Z,150.90
2022-11-15T18:51:18.546Z,129.00
2022-11-15T18:53:46.367Z,141.30
2022-11-15T18:56:18.543Z,131.80
2022-11-15T18:58:54.690Z,118.00
2022-11-15T19:01:23.663Z,120.90
2022-11-15T19:03:52.810Z,118.50
2022-11-15T19:06:22.076Z,110.70
2022-11-15T19:08:51.215Z,122.30
2022-11-15T19:11:20.617Z,123.20
2022-11-15T19:13:47.874Z,136.30
2022-11-15T19:16:16.166Z,133.50
2022-11-15T19:18:42.941Z,148.30
2022-11-15T19:21:14.871Z,135.90
2022-11-15T19:23:43.148Z,139.20
2022-11-15T19:26:12.305Z,167.00
2022-11-15T19:28:39.612Z,159.70
2022-11-15T19:31:08.609Z,166.10
2022-11-15T19:33:35.512Z,134.70
2022-11-15T19:36:04.077Z,166.50
2022-11-15T19:38:32.035Z,184.10
2022-11-15T19:41:02.598Z,177.90
2022-11-15T19:43:30.218Z,183.40
2022-11-15T19:46:02.318Z,140.80
2022-11-15T19:48:34.165Z,244.90
2022-11-15T19:51:10.016Z,152.30
2022-11-15T19:53:37.236Z,151.20
2022-11-15T19:56:05.761Z,168.80
2022-11-15T19:58:32.916Z,138.10
2022-11-15T20:01:26.779Z,144.20
2022-11-15T20:03:55.194Z,136.70
2022-11-15T20:06:24.311Z,150.30
2022-11-15T20:08:51.128Z,191.20
2022-11-15T20:11:18.390Z,140.60
2022-11-15T20:13:45.850Z,156.00
2022-11-15T20:16:16.839Z,125.30
2022-11-15T20:18:43.740Z,130.10
2022-11-15T20:21:10.795Z,154.30
2022-11-15T20:23:37.301Z,139.80
2022-11-15T20:26:03.878Z,189.50
2022-11-15T20:28:30.672Z,195.60
2022-11-15T20:31:00.397Z,145.90
2022-11-15T20:33:27.691Z,250.70
2022-11-15T20:35:54.647Z,183.60
2022-11-15T20:38:22.312Z,149.20
2022-11-15T20:40:50.245Z,127.90
2022-11-15T20:43:19.283Z,120.00
2022-11-15T20:45:47.323Z,117.90
2022-11-15T20:48:15.337Z,151.30
2022-11-15T20:50:44.175Z,126.40
2022-11-15T20:53:14.762Z,137.70
2022-11-15T20:55:43.039Z,137.80
2022-11-15T20:58:11.025Z,126.40
2022-11-15T21:00:37.719Z,130.80
2022-11-15T21:03:05.631Z,197.50
2022-11-15T21:05:34.028Z,157.10
2022-11-15T21:08:00.753Z,144.00
2022-11-15T21:10:27.292Z,148.90
2022-11-15T21:12:53.828Z,155.80
2022-11-15T21:15:20.342Z,169.90
2022-11-15T21:17:47.447Z,173.20
2022-11-15T21:20:14.063Z,163.00
2022-11-15T21:22:40.606Z,200.00
2022-11-15T21:25:07.671Z,200.40
2022-11-15T21:27:34.134Z,170.90
2022-11-15T21:30:00.750Z,180.10
2022-11-15T21:32:27.287Z,160.10
2022-11-15T21:34:53.827Z,128.40
2022-11-15T21:37:20.295Z,145.60
2022-11-15T21:39:47.525Z,159.10
2022-11-15T21:42:14.062Z,175.10
2022-11-15T21:44:40.602Z,175.40
2022-11-15T21:47:07.060Z,168.20
2022-11-15T21:49:33.520Z,171.60
2022-11-15T21:51:59.986Z,192.40
2022-11-15T21:54:26.448Z,250.90
2022-11-15T21:56:52.996Z,238.20
2022-11-15T21:59:19.492Z,212.10
2022-11-15T22:01:46.229Z,184.00
2022-11-15T22:04:13.470Z,249.10
2022-11-15T22:06:40.424Z,259.80
2022-11-15T22:09:07.853Z,201.30
2022-11-15T22:11:34.805Z,206.40
2022-11-15T22:14:01.960Z,281.00
2022-11-15T22:16:28.599Z,233.20
2022-11-15T22:18:55.346Z,172.60
2022-11-15T22:21:22.193Z,190.60
2022-11-15T22:23:49.042Z,179.20
2022-11-15T22:26:23.201Z,143.40
2022-11-15T22:28:50.931Z,155.00
2022-11-15T22:31:17.648Z,141.60
2022-11-15T22:33:44.419Z,123.90
2022-11-15T22:36:12.506Z,132.80
2022-11-15T22:38:39.236Z,131.80
2022-11-15T22:41:05.939Z,134.10
2022-11-15T22:43:32.594Z,116.60
2022-11-15T22:46:00.627Z,116.10
2022-11-15T22:48:35.743Z,102.90
2022-11-15T22:51:03.829Z,96.40
2022-11-15T22:53:31.292Z,86.20
2022-11-15T22:56:00.278Z,85.20
2022-11-15T22:58:29.188Z,119.80
2022-11-15T23:00:59.031Z,98.40
2022-11-15T23:03:27.444Z,93.10
2022-11-15T23:05:54.691Z,87.40
2022-11-15T23:08:23.490Z,85.10
2022-11-15T23:10:50.313Z,87.50
2022-11-15T23:13:17.041Z,109.50
2022-11-15T23:15:45.905Z,105.70
2022-11-15T23:18:12.448Z,99.80
2022-11-15T23:20:43.490Z,97.50
2022-11-15T23:23:11.474Z,89.90
2022-11-15T23:25:38.113Z,78.20
2022-11-15T23:28:06.006Z,77.00
2022-11-15T23:30:36.931Z,77.00
2022-11-15T23:33:03.576Z,84.40
2022-11-15T23:35:30.040Z,80.50
2022-11-15T23:37:56.558Z,85.70
2022-11-15T23:40:23.062Z,85.50
2022-11-15T23:42:49.639Z,94.70
2022-11-15T23:45:16.719Z,99.60
2022-11-15T23:47:44.155Z,119.50
2022-11-15T23:50:11.103Z,123.10
2022-11-15T23:52:37.643Z,128.40
2022-11-15T23:55:04.795Z,104.40
2022-11-15T23:57:31.264Z,102.70
